Wausau Downtown Airport
KAUW : now visible

Airfield :











YOU CAN JOIN US ON...

 
LOGIN :

Register | Disclaimer

   EN    FR    IT 

 









Legend :    VFR   Marginal VFR   IFR   Intensive IFR   Very Intensive IFR
Visi :
Ceiling :
>= 8 km
>= 3000ft
5 to 8 km
1000 to 3000 ft
1500m to 5 km
500 to 1000 ft
800 to 1500m
200 to 500 ft
< 800m
< 200 ft
Symbols :   Thunderstorms  Fog  Heavy snow  Heavy precipitations  Wind > 20 kt






- Airport Elevation : 1201 ft


KAUW - Wausau Downtown

CURRENT METAR :
  • 202254Z AUTO 27010KT 10SM CLR 19/04 A2955 RMK AO2 SLP007 T01940044

EXPIRED METARs :
  • 202154Z AUTO 25013KT 10SM FEW110 19/06 A2952 RMK AO2 SLP995 T01890056
  • 202054Z AUTO 26009KT 10SM BKN095 17/06 A2951 RMK AO2 SLP993 T01720061 53025

TAF KAUW
Valid from the 20 at 18:00 until the 21 at 18:00 UTC


201733Z 2018/2118 27008KT P6SM SCT025 OVC080
TEMPO 2018/2021 -SHRA BKN025
FM202100 27010G17KT P6SM SCT025 OVC090
FM202300 26009KT P6SM SCT025 BKN100
FM210500 30008KT P6SM BKN140
FM211200 31010KT P6SM SCT050 SCT140 BKN200
FM211600 31007KT P6SM SCT050 BKN140
KZMP FIR / North America



MET'MAP, your aeronautical weather chart ! - Copyright ORBIFLY December 2007 - Disclaimer

ORBIFLY MET'MAP TEAM :

Programming & Development : Alexandra Zaïnal
Original concept : Baudouin d'Aumeries
Technical & hardware support : Manuel Goepfert
Assistance : Marc-Olivier Méhu

Contact : metmap@orbifly.com




SOURCES & CREDITS :

   NOAA       Earth
Advisory